createdAt,value
2022-12-01T00:00:10.209Z,102727.56
2022-12-01T00:02:43.148Z,102725.84
2022-12-01T00:05:16.199Z,102738.25
2022-12-01T00:07:49.674Z,102739.88
2022-12-01T00:10:27.290Z,102739.06
2022-12-01T00:13:04.056Z,102734.81
2022-12-01T00:15:38.140Z,102744.63
2022-12-01T00:18:11.096Z,102740.47
2022-12-01T00:20:43.960Z,102740.03
2022-12-01T00:23:16.701Z,102733.41
2022-12-01T00:25:49.752Z,102741.16
2022-12-01T00:28:24.316Z,102738.81
2022-12-01T00:31:00.698Z,102743.00
2022-12-01T00:33:33.435Z,102740.41
2022-12-01T00:36:07.524Z,102742.03
2022-12-01T00:38:40.892Z,102736.81
2022-12-01T00:41:13.685Z,102736.81
2022-12-01T00:43:48.008Z,102740.22
2022-12-01T00:46:21.228Z,102742.72
2022-12-01T00:48:54.967Z,102743.53
2022-12-01T00:51:28.264Z,102740.91
2022-12-01T00:54:01.176Z,102734.03
2022-12-01T00:56:34.213Z,102744.44
2022-12-01T00:59:08.446Z,102739.78
2022-12-01T01:01:41.911Z,102746.25
2022-12-01T01:04:14.819Z,102749.34
2022-12-01T01:06:47.732Z,102747.44
2022-12-01T01:09:20.670Z,102752.06
2022-12-01T01:11:53.331Z,102745.00
2022-12-01T01:14:27.778Z,102752.69
2022-12-01T01:17:00.769Z,102749.97
2022-12-01T01:19:33.382Z,102754.09
2022-12-01T01:22:06.253Z,102747.59
2022-12-01T01:24:39.232Z,102752.44
2022-12-01T01:27:12.216Z,102759.00
2022-12-01T01:29:47.156Z,102753.03
2022-12-01T01:32:20.211Z,102762.34
2022-12-01T01:34:53.120Z,102774.34
2022-12-01T01:37:25.831Z,102768.09
2022-12-01T01:39:58.603Z,102768.91
2022-12-01T01:42:31.923Z,102760.94
2022-12-01T01:45:20.807Z,102768.00
2022-12-01T01:47:56.687Z,102766.97
2022-12-01T01:50:30.048Z,102767.84
2022-12-01T01:53:06.650Z,102765.63
2022-12-01T01:55:39.760Z,102770.00
2022-12-01T01:58:13.609Z,102772.94
2022-12-01T02:00:48.429Z,102776.47
2022-12-01T02:03:22.878Z,102762.84
2022-12-01T02:06:00.517Z,102774.25
2022-12-01T02:08:38.225Z,102779.88
2022-12-01T02:11:26.982Z,102773.91
2022-12-01T02:14:10.941Z,102769.47
2022-12-01T02:16:52.043Z,102770.06
2022-12-01T02:19:56.185Z,102761.91
2022-12-01T02:22:37.572Z,102762.41
2022-12-01T02:25:36.270Z,102753.41
2022-12-01T02:28:27.382Z,102754.22
2022-12-01T02:31:09.350Z,102749.13
2022-12-01T02:33:50.121Z,102748.34
2022-12-01T02:36:32.666Z,102751.06
2022-12-01T02:39:10.397Z,102751.16
2022-12-01T02:41:49.416Z,102742.88
2022-12-01T02:44:30.171Z,102745.59
2022-12-01T02:47:11.346Z,102743.50
2022-12-01T02:49:48.811Z,102747.31
2022-12-01T02:52:24.829Z,102740.75
2022-12-01T02:54:58.053Z,102746.28
2022-12-01T02:57:32.115Z,102747.31
2022-12-01T03:00:13.626Z,102750.91
2022-12-01T03:03:02.461Z,102750.41
2022-12-01T03:05:44.050Z,102752.31
2022-12-01T03:08:26.288Z,102750.47
2022-12-01T03:11:00.651Z,102747.97
2022-12-01T03:13:40.146Z,102755.72
2022-12-01T03:16:16.978Z,102753.50
2022-12-01T03:18:57.548Z,102760.63
2022-12-01T03:21:36.098Z,102760.13
2022-12-01T03:24:14.891Z,102751.88
2022-12-01T03:26:51.818Z,102749.22
2022-12-01T03:29:27.968Z,102745.38
2022-12-01T03:32:04.615Z,102748.41
2022-12-01T03:34:46.425Z,102735.28
2022-12-01T03:37:23.552Z,102745.69
2022-12-01T03:40:00.471Z,102744.38
2022-12-01T03:42:38.656Z,102741.91
2022-12-01T03:45:18.953Z,102746.84
2022-12-01T03:47:51.957Z,102751.50
2022-12-01T03:50:30.595Z,102748.00
2022-12-01T03:53:09.696Z,102748.81
2022-12-01T03:55:45.422Z,102747.72
2022-12-01T03:58:21.901Z,102743.91
2022-12-01T04:00:57.943Z,102744.28
2022-12-01T04:03:30.742Z,102743.69
2022-12-01T04:06:05.777Z,102744.56
2022-12-01T04:08:38.829Z,102749.38
2022-12-01T04:11:32.597Z,102749.13
2022-12-01T04:14:05.600Z,102744.19
2022-12-01T04:16:38.387Z,102746.19
2022-12-01T04:19:12.176Z,102753.47
2022-12-01T04:21:46.207Z,102746.34
2022-12-01T04:24:18.932Z,102759.19
2022-12-01T04:26:51.838Z,102752.66
2022-12-01T04:29:24.477Z,102758.41
2022-12-01T04:31:57.392Z,102754.13
2022-12-01T04:34:30.480Z,102762.78
2022-12-01T04:37:06.157Z,102762.56
2022-12-01T04:39:39.098Z,102763.03
2022-12-01T04:42:11.988Z,102760.97
2022-12-01T04:44:44.786Z,102761.78
2022-12-01T04:47:17.576Z,102763.19
2022-12-01T04:49:50.562Z,102755.53
2022-12-01T04:52:25.009Z,102756.69
2022-12-01T04:54:57.953Z,102754.41
2022-12-01T04:57:30.738Z,102755.72
2022-12-01T05:00:03.651Z,102761.53
2022-12-01T05:02:36.190Z,102756.88
2022-12-01T05:05:09.691Z,102763.19
2022-12-01T05:07:44.115Z,102762.63
2022-12-01T05:10:19.048Z,102759.91
2022-12-01T05:12:52.152Z,102757.03
2022-12-01T05:15:25.652Z,102755.06
2022-12-01T05:17:58.445Z,102758.06
2022-12-01T05:20:48.931Z,102763.28
2022-12-01T05:23:23.015Z,102762.13
2022-12-01T05:25:56.241Z,102771.44
2022-12-01T05:28:29.885Z,102762.97
2022-12-01T05:31:02.725Z,102768.72
2022-12-01T05:33:35.479Z,102761.78
2022-12-01T05:36:08.871Z,102755.53
2022-12-01T05:38:42.991Z,102761.25
2022-12-01T05:41:16.314Z,102758.31
2022-12-01T05:43:49.309Z,102748.81
2022-12-01T05:46:21.872Z,102756.69
2022-12-01T05:48:54.597Z,102752.88
2022-12-01T05:51:27.540Z,102751.25
2022-12-01T05:54:01.902Z,102755.63
2022-12-01T05:56:34.680Z,102751.81
2022-12-01T05:59:07.620Z,102755.94
2022-12-01T06:01:40.218Z,102760.56
2022-12-01T06:04:13.352Z,102764.69
2022-12-01T06:06:46.159Z,102769.53
2022-12-01T06:09:20.309Z,102772.38
2022-12-01T06:11:52.949Z,102787.00
2022-12-01T06:14:25.716Z,102784.00
2022-12-01T06:16:58.601Z,102782.16
2022-12-01T06:19:31.721Z,102781.56
2022-12-01T06:22:04.879Z,102776.72
2022-12-01T06:24:39.041Z,102787.81
2022-12-01T06:27:11.747Z,102791.91
2022-12-01T06:29:44.532Z,102790.31
2022-12-01T06:32:17.560Z,102788.97
2022-12-01T06:34:50.229Z,102801.13
2022-12-01T06:37:22.900Z,102797.91
2022-12-01T06:39:57.160Z,102795.94
2022-12-01T06:42:31.585Z,102802.19
2022-12-01T06:45:04.471Z,102796.16
2022-12-01T06:47:37.383Z,102797.84
2022-12-01T06:50:11.985Z,102794.03
2022-12-01T06:52:44.892Z,102798.63
2022-12-01T06:55:19.231Z,102792.91
2022-12-01T06:57:52.095Z,102802.97
2022-12-01T07:00:25.456Z,102801.03
2022-12-01T07:03:03.852Z,102802.78
2022-12-01T07:05:39.147Z,102808.16
2022-12-01T07:08:12.492Z,102809.25
2022-12-01T07:10:46.900Z,102809.22
2022-12-01T07:13:19.895Z,102809.72
2022-12-01T07:15:52.580Z,102817.06
2022-12-01T07:18:25.649Z,102809.75
2022-12-01T07:21:01.015Z,102811.13
2022-12-01T07:23:35.150Z,102807.59
2022-12-01T07:26:12.674Z,102807.28
2022-12-01T07:28:46.109Z,102812.50
2022-12-01T07:31:20.705Z,102815.47
2022-12-01T07:33:53.662Z,102828.72
2022-12-01T07:36:26.318Z,102827.66
2022-12-01T07:38:59.079Z,102839.66
2022-12-01T07:41:33.242Z,102839.16
2022-12-01T07:44:06.195Z,102839.38
2022-12-01T07:46:39.527Z,102842.34
2022-12-01T07:49:15.065Z,102844.00
2022-12-01T07:51:47.825Z,102844.00
2022-12-01T07:54:21.326Z,102844.81
2022-12-01T07:56:55.466Z,102834.16
2022-12-01T07:59:28.175Z,102849.44
2022-12-01T08:02:01.018Z,102848.88
2022-12-01T08:04:33.902Z,102849.91
2022-12-01T08:07:06.860Z,102842.34
2022-12-01T08:09:40.740Z,102846.16
2022-12-01T08:12:14.971Z,102851.59
2022-12-01T08:14:47.746Z,102855.34
2022-12-01T08:17:20.882Z,102858.88
2022-12-01T08:19:53.550Z,102861.06
2022-12-01T08:22:26.308Z,102863.06
2022-12-01T08:24:58.983Z,102860.81
2022-12-01T08:27:33.360Z,102864.59
2022-12-01T08:30:07.665Z,102863.22
2022-12-01T08:32:40.422Z,102869.47
2022-12-01T08:35:13.430Z,102872.75
2022-12-01T08:37:46.343Z,102869.47
2022-12-01T08:40:19.335Z,102865.63
2022-12-01T08:42:55.479Z,102876.16
2022-12-01T08:45:28.436Z,102871.59
2022-12-01T08:48:01.103Z,102871.00
2022-12-01T08:50:34.110Z,102874.22
2022-12-01T08:53:06.592Z,102878.56
2022-12-01T08:55:39.353Z,102872.06
2022-12-01T08:58:13.497Z,102867.91
2022-12-01T09:00:46.354Z,102871.72
2022-12-01T09:03:19.131Z,102867.09
2022-12-01T09:05:51.895Z,102872.19
2022-12-01T09:08:35.231Z,102871.28
2022-12-01T09:11:12.533Z,102866.03
2022-12-01T09:13:54.323Z,102863.16
2022-12-01T09:16:27.727Z,102871.84
2022-12-01T09:19:00.561Z,102868.88
2022-12-01T09:21:36.917Z,102874.50
2022-12-01T09:24:12.328Z,102876.59
2022-12-01T09:26:45.133Z,102874.38
2022-12-01T09:29:19.809Z,102874.84
2022-12-01T09:31:52.771Z,102871.25
2022-12-01T09:34:25.791Z,102874.28
2022-12-01T09:36:59.344Z,102875.28
2022-12-01T09:39:35.073Z,102875.69
2022-12-01T09:42:13.898Z,102876.09
2022-12-01T09:44:52.293Z,102874.81
2022-12-01T09:47:30.240Z,102870.53
2022-12-01T09:50:06.954Z,102870.13
2022-12-01T09:52:44.776Z,102863.41
2022-12-01T09:55:19.281Z,102862.75
2022-12-01T09:57:55.202Z,102859.28
2022-12-01T10:00:32.939Z,102858.09
2022-12-01T10:03:17.784Z,102864.47
2022-12-01T10:08:53.355Z,102858.56
2022-12-01T10:11:32.705Z,102857.03
2022-12-01T10:14:17.936Z,102852.19
2022-12-01T10:17:04.654Z,102857.28
2022-12-01T10:19:43.634Z,102855.66
2022-12-01T10:22:49.228Z,102852.63
2022-12-01T10:25:24.384Z,102854.25
2022-12-01T10:28:12.098Z,102848.00
2022-12-01T10:30:50.936Z,102845.97
2022-12-01T10:33:26.562Z,102852.72
2022-12-01T10:35:59.715Z,102844.53
2022-12-01T10:38:36.191Z,102842.69
2022-12-01T10:41:15.646Z,102838.00
2022-12-01T10:43:51.364Z,102830.50
2022-12-01T10:46:31.015Z,102828.78
2022-12-01T10:49:11.793Z,102828.59
2022-12-01T10:51:53.093Z,102836.28
2022-12-01T10:54:34.613Z,102827.47
2022-12-01T10:57:14.832Z,102831.84
2022-12-01T10:59:52.982Z,102825.78
2022-12-01T11:02:29.727Z,102827.97
2022-12-01T11:05:08.201Z,102838.72
2022-12-01T11:07:46.313Z,102828.22
2022-12-01T11:10:22.090Z,102832.44
2022-12-01T11:12:58.606Z,102831.94
2022-12-01T11:15:34.427Z,102840.94
2022-12-01T11:18:21.337Z,102835.47
2022-12-01T11:21:09.192Z,102832.84
2022-12-01T11:23:47.110Z,102830.66
2022-12-01T11:26:22.528Z,102828.19
2022-12-01T11:28:58.877Z,102824.56
2022-12-01T11:31:39.542Z,102821.81
2022-12-01T11:34:20.216Z,102815.25
2022-12-01T11:36:57.304Z,102808.78
2022-12-01T11:39:33.448Z,102813.75
2022-12-01T11:42:13.311Z,102816.19
2022-12-01T11:44:52.241Z,102817.28
2022-12-01T11:47:27.595Z,102814.97
2022-12-01T11:50:02.194Z,102811.84
2022-12-01T11:52:46.459Z,102799.66
2022-12-01T11:55:24.947Z,102803.91
2022-12-01T11:58:00.876Z,102796.84
2022-12-01T12:00:44.566Z,102795.63
2022-12-01T12:03:28.148Z,102789.75
2022-12-01T12:09:24.091Z,102781.06
2022-12-01T12:12:08.783Z,102780.75
2022-12-01T12:14:53.827Z,102781.66
2022-12-01T12:17:40.074Z,102788.84
2022-12-01T12:20:30.285Z,102778.34
2022-12-01T12:23:27.070Z,102776.59
2022-12-01T12:26:08.272Z,102769.84
2022-12-01T12:28:54.996Z,102763.56
2022-12-01T12:31:35.536Z,102765.28
2022-12-01T12:34:22.945Z,102775.38
2022-12-01T12:37:08.769Z,102764.47
2022-12-01T12:40:01.421Z,102769.13
2022-12-01T12:42:48.878Z,102767.69
2022-12-01T12:45:30.164Z,102772.97
2022-12-01T12:48:16.285Z,102764.59
2022-12-01T12:50:59.183Z,102763.06
2022-12-01T12:53:41.299Z,102764.69
2022-12-01T12:56:18.398Z,102760.63
2022-12-01T12:58:58.580Z,102760.63
2022-12-01T13:01:38.006Z,102755.88
2022-12-01T13:04:15.104Z,102761.47
2022-12-01T13:06:54.018Z,102762.53
2022-12-01T13:09:35.036Z,102764.06
2022-12-01T13:12:15.742Z,102762.06
2022-12-01T13:15:00.662Z,102765.41
2022-12-01T13:17:38.515Z,102768.44
2022-12-01T13:20:15.990Z,102760.84
2022-12-01T13:22:50.274Z,102765.31
2022-12-01T13:25:27.794Z,102769.03
2022-12-01T13:28:08.609Z,102765.50
2022-12-01T13:30:42.871Z,102764.06
2022-12-01T13:33:17.372Z,102759.22
2022-12-01T13:36:21.338Z,102752.16
2022-12-01T13:38:58.263Z,102758.19
2022-12-01T13:41:34.257Z,102756.59
2022-12-01T13:44:10.025Z,102754.16
2022-12-01T13:47:00.035Z,102747.81
2022-12-01T13:49:41.931Z,102745.88
2022-12-01T13:52:29.293Z,102736.88
2022-12-01T13:55:18.862Z,102740.91
2022-12-01T13:58:42.010Z,102748.00
2022-12-01T14:01:43.665Z,102737.06
2022-12-01T14:04:29.336Z,102734.03
2022-12-01T14:07:33.864Z,102731.09
2022-12-01T14:10:25.025Z,102729.91
2022-12-01T14:13:03.022Z,102728.28
2022-12-01T14:15:42.528Z,102731.59
2022-12-01T14:18:28.469Z,102732.13
2022-12-01T14:21:04.578Z,102734.66
2022-12-01T14:23:41.234Z,102736.47
2022-12-01T14:26:19.757Z,102733.84
2022-12-01T14:29:27.253Z,102732.94
2022-12-01T14:32:21.509Z,102730.00
2022-12-01T14:34:57.037Z,102733.84
2022-12-01T14:37:44.944Z,102732.72
2022-12-01T14:40:29.153Z,102730.63
2022-12-01T14:43:20.546Z,102724.63
2022-12-01T14:46:02.798Z,102723.31
2022-12-01T14:48:40.283Z,102722.03
2022-12-01T14:51:22.098Z,102722.03
2022-12-01T14:53:58.160Z,102734.25
2022-12-01T14:56:34.071Z,102722.59
2022-12-01T14:59:20.023Z,102728.59
2022-12-01T15:01:56.064Z,102729.78
2022-12-01T15:04:28.869Z,102730.28
2022-12-01T15:07:01.740Z,102729.19
2022-12-01T15:09:36.361Z,102726.13
2022-12-01T15:12:28.785Z,102733.91
2022-12-01T15:15:18.767Z,102735.13
2022-12-01T15:17:57.668Z,102728.25
2022-12-01T15:20:33.140Z,102726.56
2022-12-01T15:23:14.230Z,102729.56
2022-12-01T15:25:48.475Z,102731.00
2022-12-01T15:28:23.212Z,102731.19
2022-12-01T15:30:59.703Z,102732.50
2022-12-01T15:33:37.415Z,102736.53
2022-12-01T15:36:10.642Z,102738.28
2022-12-01T15:38:47.087Z,102740.50
2022-12-01T15:41:31.335Z,102743.09
2022-12-01T15:44:05.466Z,102740.38
2022-12-01T15:46:38.384Z,102744.72
2022-12-01T15:49:18.942Z,102736.94
2022-12-01T15:51:53.280Z,102743.00
2022-12-01T15:54:27.824Z,102752.00
2022-12-01T15:57:03.723Z,102749.25
2022-12-01T15:59:44.293Z,102747.66
2022-12-01T16:02:29.321Z,102748.66
2022-12-01T16:05:05.839Z,102753.53
2022-12-01T16:08:11.383Z,102741.78
2022-12-01T16:10:33.741Z,102750.84
2022-12-01T16:13:45.326Z,102746.34
2022-12-01T16:16:29.532Z,102746.13
2022-12-01T16:19:05.750Z,102748.66
2022-12-01T16:21:55.340Z,102746.13
2022-12-01T16:24:32.110Z,102756.66
2022-12-01T16:27:06.631Z,102756.66
2022-12-01T16:29:50.393Z,102751.81
2022-12-01T16:32:27.687Z,102741.78
2022-12-01T16:35:01.032Z,102755.00
2022-12-01T16:37:36.724Z,102750.25
2022-12-01T16:40:11.861Z,102748.03
2022-12-01T16:42:44.799Z,102738.88
2022-12-01T16:45:19.725Z,102744.03
2022-12-01T16:47:52.543Z,102749.84
2022-12-01T16:50:25.420Z,102747.06
2022-12-01T16:52:58.309Z,102741.16
2022-12-01T16:55:38.909Z,102745.81
2022-12-01T16:58:11.839Z,102742.50
2022-12-01T17:00:52.682Z,102738.19
2022-12-01T17:03:28.682Z,102744.88
2022-12-01T17:06:03.379Z,102740.78
2022-12-01T17:08:36.437Z,102739.84
2022-12-01T17:11:10.182Z,102739.34
2022-12-01T17:13:43.082Z,102731.97
2022-12-01T17:16:18.901Z,102736.31
2022-12-01T17:18:52.127Z,102739.34
2022-12-01T17:21:24.765Z,102735.88
2022-12-01T17:23:57.616Z,102739.25
2022-12-01T17:26:30.500Z,102742.50
2022-12-01T17:29:03.229Z,102735.28
2022-12-01T17:31:37.797Z,102738.81
2022-12-01T17:34:10.749Z,102732.88
2022-12-01T17:36:43.854Z,102735.28
2022-12-01T17:39:16.804Z,102732.88
2022-12-01T17:41:49.742Z,102728.53
2022-12-01T17:44:30.584Z,102730.44
2022-12-01T17:47:05.564Z,102726.41
2022-12-01T17:49:39.355Z,102738.91
2022-12-01T17:52:15.067Z,102737.81
2022-12-01T17:54:48.509Z,102739.50
2022-12-01T17:57:23.459Z,102731.69
2022-12-01T17:59:56.425Z,102732.44
2022-12-01T18:02:30.652Z,102723.50
2022-12-01T18:05:04.046Z,102716.38
2022-12-01T18:07:37.208Z,102729.34
2022-12-01T18:10:16.429Z,102719.53
2022-12-01T18:12:49.301Z,102720.06
2022-12-01T18:15:22.105Z,102724.19
2022-12-01T18:17:57.917Z,102718.81
2022-12-01T18:20:33.749Z,102727.50
2022-12-01T18:23:06.782Z,102720.16
2022-12-01T18:25:43.661Z,102721.31
2022-12-01T18:28:17.021Z,102726.75
2022-12-01T18:30:50.076Z,102720.22
2022-12-01T18:33:25.724Z,102719.09
2022-12-01T18:35:58.755Z,102718.59
2022-12-01T18:38:32.340Z,102721.31
2022-12-01T18:41:07.621Z,102719.03
2022-12-01T18:43:45.152Z,102715.34
2022-12-01T18:46:19.835Z,102717.34
2022-12-01T18:49:00.476Z,102719.75
2022-12-01T18:51:35.597Z,102719.75
2022-12-01T18:54:11.909Z,102718.66
2022-12-01T18:56:44.753Z,102719.25
2022-12-01T18:59:18.582Z,102718.28
2022-12-01T19:01:52.429Z,102712.19
2022-12-01T19:04:28.893Z,102719.03
2022-12-01T19:07:01.860Z,102706.34
2022-12-01T19:09:34.649Z,102716.59
2022-12-01T19:12:08.095Z,102716.16
2022-12-01T19:14:40.878Z,102712.84
2022-12-01T19:17:14.117Z,102715.03
2022-12-01T19:19:48.722Z,102715.13
2022-12-01T19:22:23.724Z,102718.31
2022-12-01T19:24:57.576Z,102713.66
2022-12-01T19:27:31.211Z,102714.84
2022-12-01T19:30:10.165Z,102706.16
2022-12-01T19:32:47.823Z,102711.59
2022-12-01T19:35:24.745Z,102709.38
2022-12-01T19:38:03.424Z,102717.03
2022-12-01T19:40:46.178Z,102712.53
2022-12-01T19:43:21.961Z,102711.28
2022-12-01T19:45:55.324Z,102716.59
2022-12-01T19:48:28.748Z,102716.88
2022-12-01T19:51:03.605Z,102716.34
2022-12-01T19:53:38.694Z,102707.63
2022-12-01T19:56:12.028Z,102711.34
2022-12-01T19:58:44.956Z,102707.75
2022-12-01T20:01:19.269Z,102714.63
2022-12-01T20:03:53.991Z,102717.47
2022-12-01T20:06:30.908Z,102715.53
2022-12-01T20:09:06.093Z,102717.63
2022-12-01T20:11:38.895Z,102717.97
2022-12-01T20:14:12.003Z,102706.88
2022-12-01T20:16:44.747Z,102709.28
2022-12-01T20:19:17.580Z,102708.78
2022-12-01T20:21:51.849Z,102700.81
2022-12-01T20:24:25.395Z,102704.09
2022-12-01T20:27:00.551Z,102701.94
2022-12-01T20:29:33.694Z,102713.88
2022-12-01T20:32:07.129Z,102710.09
2022-12-01T20:34:39.956Z,102709.75
2022-12-01T20:37:14.270Z,102701.63
2022-12-01T20:39:47.518Z,102702.44
2022-12-01T20:42:22.976Z,102706.56
2022-12-01T20:45:11.422Z,102716.88
2022-12-01T20:47:57.994Z,102720.63
2022-12-01T20:50:31.055Z,102726.06
2022-12-01T20:53:08.867Z,102715.19
2022-12-01T20:55:48.603Z,102713.56
2022-12-01T20:58:21.745Z,102716.00
2022-12-01T21:00:54.404Z,102711.06
2022-12-01T21:03:27.367Z,102709.19
2022-12-01T21:06:00.113Z,102703.78
2022-12-01T21:08:34.297Z,102708.56
2022-12-01T21:11:09.506Z,102694.91
2022-12-01T21:13:44.436Z,102697.53
2022-12-01T21:16:24.026Z,102691.06
2022-12-01T21:19:01.127Z,102691.28
2022-12-01T21:21:39.903Z,102679.06
2022-12-01T21:24:17.086Z,102690.97
2022-12-01T21:26:54.858Z,102691.50
2022-12-01T21:29:29.961Z,102691.88
2022-12-01T21:32:13.323Z,102686.63
2022-12-01T21:34:48.120Z,102689.66
2022-12-01T21:37:23.540Z,102676.78
2022-12-01T21:39:58.335Z,102679.56
2022-12-01T21:42:32.357Z,102678.19
2022-12-01T21:45:15.920Z,102667.38
2022-12-01T21:47:48.737Z,102670.28
2022-12-01T21:50:24.935Z,102676.34
2022-12-01T21:52:59.079Z,102676.34
2022-12-01T21:55:36.169Z,102670.28
2022-12-01T21:58:34.570Z,102664.78
2022-12-01T22:01:17.967Z,102662.06
2022-12-01T22:03:51.563Z,102667.50
2022-12-01T22:06:30.564Z,102666.47
2022-12-01T22:09:15.443Z,102666.69
2022-12-01T22:11:53.905Z,102672.16
2022-12-01T22:14:30.160Z,102657.66
2022-12-01T22:17:17.631Z,102663.09
2022-12-01T22:19:57.881Z,102657.94
2022-12-01T22:22:32.670Z,102663.91
2022-12-01T22:25:23.577Z,102660.38
2022-12-01T22:28:01.269Z,102658.16
2022-12-01T22:30:35.709Z,102653.59
2022-12-01T22:33:20.127Z,102648.88
2022-12-01T22:35:53.910Z,102653.22
2022-12-01T22:38:32.967Z,102647.34
2022-12-01T22:41:07.466Z,102641.94
2022-12-01T22:43:47.043Z,102637.03
2022-12-01T22:46:28.817Z,102640.28
2022-12-01T22:49:14.219Z,102640.88
2022-12-01T22:51:50.162Z,102640.44
2022-12-01T22:54:30.492Z,102637.72
2022-12-01T22:57:09.511Z,102645.78
2022-12-01T22:59:45.198Z,102650.97
2022-12-01T23:02:24.659Z,102650.78
2022-12-01T23:05:00.865Z,102642.41
2022-12-01T23:07:35.507Z,102640.44
2022-12-01T23:10:13.899Z,102645.59
2022-12-01T23:12:48.754Z,102643.00
2022-12-01T23:15:30.113Z,102638.28
2022-12-01T23:18:12.728Z,102646.16
2022-12-01T23:20:48.019Z,102644.91
2022-12-01T23:23:22.699Z,102638.72
2022-12-01T23:25:55.733Z,102640.63
2022-12-01T23:28:30.929Z,102649.13
2022-12-01T23:31:07.916Z,102636.59
2022-12-01T23:33:40.666Z,102634.44
2022-12-01T23:36:17.597Z,102637.97
2022-12-01T23:38:52.996Z,102632.25
2022-12-01T23:41:35.246Z,102636.59
2022-12-01T23:44:16.680Z,102627.09
2022-12-01T23:46:53.378Z,102623.28
2022-12-01T23:49:30.642Z,102607.75
2022-12-01T23:52:05.050Z,102615.41
2022-12-01T23:54:39.716Z,102615.75
2022-12-01T23:57:18.214Z,102614.94
2022-12-01T23:59:54.045Z,102614.94
